Time;durP1;ratioP1;P1;durP2;ratioP2;P2;SDS_P1;SDS_P2;PMS_P1;PMS_P2;Temp;Humidity;BMP_temperature;BMP_pressure;BME280_temperature;BME280_humidity;BME280_pressure;Samples;Min_cycle;Max_cycle;Signal;HPM_P1;HPM_P2
2024/03/26 00:02:06;;;;;;;;;;;;;;;;;;5013667;28;3464;-64
2024/03/26 00:04:31;;;;;;;;;;;;;;;;;;5020793;28;4599;-61
2024/03/26 00:06:56;;;;;;;;;;;;;;;;;;5021028;28;4709;-61
2024/03/26 00:09:22;;;;;;;;;;;;;;;;;;5022169;28;5155;-64
2024/03/26 00:11:48;;;;;;;;;;;;;;;;;;5024756;28;4600;-61
2024/03/26 00:14:13;;;;;;;;;;;;;;;;;;5019269;28;3432;-63
2024/03/26 00:16:38;;;;;;;;;;;;;;;;;;5017846;28;5053;-61
2024/03/26 00:19:04;;;;;;;;;;;;;;;;;;5018224;28;5112;-61
2024/03/26 00:21:29;;;;;;;;;;;;;;;;;;5017855;28;5082;-60
2024/03/26 00:23:54;;;;;;;;;;;;;;;;;;5021454;28;4530;-61
2024/03/26 00:26:20;;;;;;;;;;;;;;;;;;5023826;28;3348;-62
2024/03/26 00:28:45;;;;;;;;;;;;;;;;;;5022254;28;4682;-60
2024/03/26 00:31:10;;;;;;;;;;;;;;;;;;5023129;28;4674;-60
2024/03/26 00:33:36;;;;;;;;;;;;;;;;;;5016763;28;5183;-60
2024/03/26 00:36:01;;;;;;;;;;;;;;;;;;5021499;28;4754;-61
2024/03/26 00:38:26;;;;;;;;;;;;;;;;;;5020487;28;3516;-61
2024/03/26 00:40:52;;;;;;;;;;;;;;;;;;5015829;28;4998;-62
2024/03/26 00:43:17;;;;;;;;;;;;;;;;;;5021353;28;5054;-61
2024/03/26 00:45:43;;;;;;;;;;;;;;;;;;5018512;28;4621;-61
2024/03/26 00:48:09;;;;;;;;;;;;;;;;;;5017979;28;5638;-62
2024/03/26 00:50:34;;;;;;;;;;;;;;;;;;5024039;28;3103;-60
2024/03/26 00:53:00;;;;;;;;;;;;;;;;;;5019451;28;4901;-60
2024/03/26 00:55:25;;;;;;;;;;;;;;;;;;5020588;28;4654;-61
2024/03/26 00:57:51;;;;;;;;;;;;;;;;;;5024420;28;4709;-61
2024/03/26 01:00:16;;;;;;;;;;;;;;;;;;5018676;28;4594;-62
2024/03/26 01:02:41;;;;;;;;;;;;;;;;;;5018870;28;4953;-61
2024/03/26 01:05:07;;;;;;;;;;;;;;;;;;5017557;28;3396;-65
2024/03/26 01:07:32;;;;;;;;;;;;;;;;;;5022190;28;4715;-62
2024/03/26 01:09:57;;;;;;;;;;;;;;;;;;5022875;28;4830;-61
2024/03/26 01:12:23;;;;;;;;;;;;;;;;;;5018113;28;4600;-62
2024/03/26 01:14:48;;;;;;;;;;;;;;;;;;5023556;28;5337;-61
2024/03/26 01:17:14;;;;;;;;;;;;;;;;;;5025748;28;1203;-61
2024/03/26 01:19:39;;;;;;;;;;;;;;;;;;5020164;28;5119;-61
2024/03/26 01:22:04;;;;;;;;;;;;;;;;;;5026919;28;5082;-61
2024/03/26 01:24:30;;;;;;;;;;;;;;;;;;5023179;28;4781;-61
2024/03/26 01:26:55;;;;;;;;;;;;;;;;;;5017503;28;4637;-61
2024/03/26 01:29:20;;;;;;;;;;;;;;;;;;5024559;28;3258;-61
2024/03/26 01:31:46;;;;;;;;;;;;;;;;;;5016848;28;4502;-62
2024/03/26 01:34:11;;;;;;;;;;;;;;;;;;5022148;28;5419;-62
2024/03/26 01:36:36;;;;;;;;;;;;;;;;;;5017383;28;4546;-63
2024/03/26 01:39:02;;;;;;;;;;;;;;;;;;5023294;28;5073;-61
2024/03/26 01:41:27;;;;;;;;;;;;;;;;;;5024036;28;3110;-62
2024/03/26 01:43:52;;;;;;;;;;;;;;;;;;5026020;28;5091;-62
2024/03/26 01:46:18;;;;;;;;;;;;;;;;;;5023415;28;4993;-62
2024/03/26 01:48:44;;;;;;;;;;;;;;;;;;5022287;28;4691;-61
2024/03/26 01:51:09;;;;;;;;;;;;;;;;;;5019438;28;5296;-61
2024/03/26 01:53:34;;;;;;;;;;;;;;;;;;5036374;28;3379;-62
2024/03/26 01:56:00;;;;;;;;;;;;;;;;;;5022653;28;4529;-61
2024/03/26 01:58:26;;;;;;;;;;;;;;;;;;5025054;28;5569;-61
2024/03/26 02:00:51;;;;;;;;;;;;;;;;;;5017787;28;4599;-64
2024/03/26 02:03:16;;;;;;;;;;;;;;;;;;5024458;28;4599;-61
2024/03/26 02:05:42;;;;;;;;;;;;;;;;;;5021507;28;5140;-63
2024/03/26 02:08:07;;;;;;;;;;;;;;;;;;5021297;28;3315;-61
2024/03/26 02:10:32;;;;;;;;;;;;;;;;;;5018601;28;4726;-61
2024/03/26 02:12:58;;;;;;;;;;;;;;;;;;5019930;28;5140;-61
2024/03/26 02:15:23;;;;;;;;;;;;;;;;;;5020250;28;5250;-61
2024/03/26 02:17:49;;;;;;;;;;;;;;;;;;5020638;28;4716;-62
2024/03/26 02:20:14;;;;;;;;;;;;;;;;;;5020211;28;3362;-62
2024/03/26 02:22:39;;;;;;;;;;;;;;;;;;5017844;28;4442;-63
2024/03/26 02:25:05;;;;;;;;;;;;;;;;;;5022570;28;4794;-61
2024/03/26 02:27:30;;;;;;;;;;;;;;;;;;5021445;28;4714;-62
2024/03/26 02:29:55;;;;;;;;;;;;;;;;;;5016156;28;5204;-60
2024/03/26 02:32:21;;;;;;;;;;;;;;;;;;5023858;28;1156;-62
2024/03/26 02:34:46;;;;;;;;;;;;;;;;;;5022727;28;5025;-60
2024/03/26 02:37:12;;;;;;;;;;;;;;;;;;5022280;28;4465;-62
2024/03/26 02:39:37;;;;;;;;;;;;;;;;;;5016730;28;5074;-63
2024/03/26 02:42:02;;;;;;;;;;;;;;;;;;5026379;28;4944;-61
2024/03/26 02:44:28;;;;;;;;;;;;;;;;;;5020740;28;3502;-62
2024/03/26 02:46:53;;;;;;;;;;;;;;;;;;5023411;28;4650;-61
2024/03/26 02:49:19;;;;;;;;;;;;;;;;;;5021331;28;5104;-60
2024/03/26 02:51:44;;;;;;;;;;;;;;;;;;5018234;28;4716;-60
2024/03/26 02:54:09;;;;;;;;;;;;;;;;;;5018494;28;5069;-61
2024/03/26 02:56:35;;;;;;;;;;;;;;;;;;5020369;28;3300;-61
2024/03/26 02:59:00;;;;;;;;;;;;;;;;;;5018269;28;5059;-61
2024/03/26 03:01:25;;;;;;;;;;;;;;;;;;5017129;28;5123;-62
2024/03/26 03:03:51;;;;;;;;;;;;;;;;;;5034165;28;5002;-61
2024/03/26 03:06:16;;;;;;;;;;;;;;;;;;5021234;28;5124;-61
2024/03/26 03:08:41;;;;;;;;;;;;;;;;;;5015606;28;5158;-61
2024/03/26 03:11:07;;;;;;;;;;;;;;;;;;5015601;28;3391;-63
2024/03/26 03:13:32;;;;;;;;;;;;;;;;;;5020808;28;4718;-62
2024/03/26 03:15:58;;;;;;;;;;;;;;;;;;5018836;28;5058;-61
2024/03/26 03:18:23;;;;;;;;;;;;;;;;;;5013756;28;5072;-61
2024/03/26 03:20:49;;;;;;;;;;;;;;;;;;5015610;28;4845;-61
2024/03/26 03:23:14;;;;;;;;;;;;;;;;;;5017104;28;3431;-61
2024/03/26 03:25:40;;;;;;;;;;;;;;;;;;5027154;28;5069;-60
2024/03/26 03:28:05;;;;;;;;;;;;;;;;;;5021021;28;4469;-61
2024/03/26 03:30:31;;;;;;;;;;;;;;;;;;5022661;28;5338;-62
2024/03/26 03:32:56;;;;;;;;;;;;;;;;;;5019936;28;4520;-63
2024/03/26 03:35:21;;;;;;;;;;;;;;;;;;5019644;28;3343;-62
2024/03/26 03:37:47;;;;;;;;;;;;;;;;;;5017942;28;5371;-63
2024/03/26 03:40:12;;;;;;;;;;;;;;;;;;5015585;28;5082;-61
2024/03/26 03:42:38;;;;;;;;;;;;;;;;;;5020311;28;4789;-61
2024/03/26 03:45:04;;;;;;;;;;;;;;;;;;5014129;28;4946;-62
2024/03/26 03:47:29;;;;;;;;;;;;;;;;;;5020560;28;3295;-61
2024/03/26 03:49:54;;;;;;;;;;;;;;;;;;5018762;28;5104;-61
2024/03/26 03:52:21;;;;;;;;;;;;;;;;;;5014932;28;5135;-60
2024/03/26 03:54:46;;;;;;;;;;;;;;;;;;5011532;28;4561;-61
2024/03/26 03:57:12;;;;;;;;;;;;;;;;;;5016005;28;4543;-61
2024/03/26 03:59:37;;;;;;;;;;;;;;;;;;5018755;28;5260;-64
2024/03/26 04:02:02;;;;;;;;;;;;;;;;;;5020634;28;3434;-61
2024/03/26 04:04:28;;;;;;;;;;;;;;;;;;5021922;28;4475;-61
2024/03/26 04:06:53;;;;;;;;;;;;;;;;;;5023232;28;5182;-64
2024/03/26 04:09:19;;;;;;;;;;;;;;;;;;5022399;28;4967;-61
2024/03/26 04:11:44;;;;;;;;;;;;;;;;;;5026050;28;4761;-61
2024/03/26 04:14:10;;;;;;;;;;;;;;;;;;5027381;28;3288;-61
2024/03/26 04:16:35;;;;;;;;;;;;;;;;;;5022337;28;4642;-61
2024/03/26 04:19:01;;;;;;;;;;;;;;;;;;5023589;28;5066;-60
2024/03/26 04:21:26;;;;;;;;;;;;;;;;;;5019229;28;4518;-61
2024/03/26 04:23:51;;;;;;;;;;;;;;;;;;5021876;28;4592;-62
2024/03/26 04:26:17;;;;;;;;;;;;;;;;;;5017529;28;3596;-61
2024/03/26 04:28:42;;;;;;;;;;;;;;;;;;5020746;28;5105;-63
2024/03/26 04:31:08;;;;;;;;;;;;;;;;;;5020419;28;4521;-61
2024/03/26 04:33:33;;;;;;;;;;;;;;;;;;5017948;28;5313;-61
2024/03/26 04:35:58;;;;;;;;;;;;;;;;;;5019295;28;5175;-61
2024/03/26 04:38:24;;;;;;;;;;;;;;;;;;5017932;28;3450;-61
2024/03/26 04:40:50;;;;;;;;;;;;;;;;;;5018837;28;5127;-63
2024/03/26 04:43:15;;;;;;;;;;;;;;;;;;5026373;28;5161;-62
2024/03/26 04:45:41;;;;;;;;;;;;;;;;;;5022425;28;5000;-60
2024/03/26 04:48:06;;;;;;;;;;;;;;;;;;5018777;28;4795;-60
2024/03/26 04:50:31;;;;;;;;;;;;;;;;;;5022903;28;3312;-59
2024/03/26 04:52:57;;;;;;;;;;;;;;;;;;5025789;28;5011;-60
2024/03/26 04:55:22;;;;;;;;;;;;;;;;;;5023050;28;5240;-61
2024/03/26 04:57:48;;;;;;;;;;;;;;;;;;5019991;28;5167;-61
2024/03/26 05:00:13;;;;;;;;;;;;;;;;;;5023891;28;4620;-62
2024/03/26 05:02:42;;;;;;;;;;;;;;;;;;5023142;28;5180;-60
2024/03/26 05:05:07;;;;;;;;;;;;;;;;;;5023422;28;3437;-60
2024/03/26 05:07:33;;;;;;;;;;;;;;;;;;5018607;28;5129;-62
2024/03/26 05:09:58;;;;;;;;;;;;;;;;;;5016522;28;5329;-60
2024/03/26 05:12:23;;;;;;;;;;;;;;;;;;5023933;28;4589;-61
2024/03/26 05:14:49;;;;;;;;;;;;;;;;;;5023630;28;5181;-62
2024/03/26 05:17:14;;;;;;;;;;;;;;;;;;5015923;28;3623;-62
2024/03/26 05:19:40;;;;;;;;;;;;;;;;;;5022138;28;5156;-60
2024/03/26 05:22:05;;;;;;;;;;;;;;;;;;5033161;28;5147;-60
2024/03/26 05:24:31;;;;;;;;;;;;;;;;;;5020972;28;4800;-59
2024/03/26 05:26:57;;;;;;;;;;;;;;;;;;5021951;28;4590;-59
2024/03/26 05:29:22;;;;;;;;;;;;;;;;;;5026154;28;1125;-60
2024/03/26 05:31:47;;;;;;;;;;;;;;;;;;5020521;28;5819;-60
2024/03/26 05:34:13;;;;;;;;;;;;;;;;;;5019494;28;5281;-62
2024/03/26 05:36:38;;;;;;;;;;;;;;;;;;5015502;28;4753;-60
2024/03/26 05:39:03;;;;;;;;;;;;;;;;;;5024396;28;5392;-60
2024/03/26 05:41:29;;;;;;;;;;;;;;;;;;5020081;28;3361;-64
2024/03/26 05:43:54;;;;;;;;;;;;;;;;;;5021753;28;5337;-61
2024/03/26 05:46:20;;;;;;;;;;;;;;;;;;5018825;28;5018;-60
2024/03/26 05:48:45;;;;;;;;;;;;;;;;;;5020072;28;5124;-61
2024/03/26 05:51:10;;;;;;;;;;;;;;;;;;5017159;28;5018;-61
2024/03/26 05:53:36;;;;;;;;;;;;;;;;;;5021886;28;5215;-60
2024/03/26 05:56:01;;;;;;;;;;;;;;;;;;5021995;28;3387;-60
2024/03/26 05:58:26;;;;;;;;;;;;;;;;;;5021952;28;5161;-61
2024/03/26 06:00:52;;;;;;;;;;;;;;;;;;5015606;28;5217;-61
2024/03/26 06:03:18;;;;;;;;;;;;;;;;;;5016858;28;4915;-60
2024/03/26 06:05:43;;;;;;;;;;;;;;;;;;5025753;28;5135;-60
2024/03/26 06:08:08;;;;;;;;;;;;;;;;;;5023750;28;3301;-59
2024/03/26 06:10:34;;;;;;;;;;;;;;;;;;5025103;28;5085;-59
2024/03/26 06:12:59;;;;;;;;;;;;;;;;;;5024826;28;4515;-61
2024/03/26 06:15:24;;;;;;;;;;;;;;;;;;5022315;28;5008;-60
2024/03/26 06:17:50;;;;;;;;;;;;;;;;;;5023542;28;4558;-61
2024/03/26 06:20:15;;;;;;;;;;;;;;;;;;5024773;28;1168;-60
2024/03/26 06:22:40;;;;;;;;;;;;;;;;;;5022114;28;5047;-60
2024/03/26 06:25:06;;;;;;;;;;;;;;;;;;5021884;28;4486;-60
2024/03/26 06:27:31;;;;;;;;;;;;;;;;;;5023641;28;5378;-62
2024/03/26 06:29:58;;;;;;;;;;;;;;;;;;5022262;28;5109;-60
2024/03/26 06:32:23;;;;;;;;;;;;;;;;;;5018187;28;3334;-60
2024/03/26 06:34:49;;;;;;;;;;;;;;;;;;5016363;28;5334;-60
2024/03/26 06:37:14;;;;;;;;;;;;;;;;;;5027687;28;4458;-63
2024/03/26 06:39:39;;;;;;;;;;;;;;;;;;5023365;28;4899;-62
2024/03/26 06:42:05;;;;;;;;;;;;;;;;;;5025660;28;4462;-60
2024/03/26 06:44:30;;;;;;;;;;;;;;;;;;5028317;28;3442;-62
2024/03/26 06:46:55;;;;;;;;;;;;;;;;;;5025732;28;5023;-62
2024/03/26 06:49:21;;;;;;;;;;;;;;;;;;5031521;28;4662;-62
2024/03/26 06:51:47;;;;;;;;;;;;;;;;;;5022588;28;5037;-62
2024/03/26 06:54:12;;;;;;;;;;;;;;;;;;5020916;28;4525;-61
2024/03/26 06:56:37;;;;;;;;;;;;;;;;;;5024324;28;5034;-61
2024/03/26 06:59:03;;;;;;;;;;;;;;;;;;5021334;28;3351;-61
2024/03/26 07:01:28;;;;;;;;;;;;;;;;;;5023756;28;5035;-63
2024/03/26 07:03:53;;;;;;;;;;;;;;;;;;5024533;28;5017;-62
2024/03/26 07:06:19;;;;;;;;;;;;;;;;;;5023020;28;5171;-62
2024/03/26 07:08:44;;;;;;;;;;;;;;;;;;5024090;28;4839;-62
2024/03/26 07:11:10;;;;;;;;;;;;;;;;;;5025571;28;1372;-61
2024/03/26 07:13:35;;;;;;;;;;;;;;;;;;5018081;28;5734;-63
2024/03/26 07:16:00;;;;;;;;;;;;;;;;;;5025950;28;5150;-63
2024/03/26 07:18:26;;;;;;;;;;;;;;;;;;5022485;28;5162;-63
2024/03/26 07:20:51;;;;;;;;;;;;;;;;;;5023492;28;4481;-63
2024/03/26 07:23:16;;;;;;;;;;;;;;;;;;5025304;28;1413;-63
2024/03/26 07:25:42;;;;;;;;;;;;;;;;;;5038159;28;4954;-63
2024/03/26 07:28:07;;;;;;;;;;;;;;;;;;5022355;28;6144;-63
2024/03/26 07:30:33;;;;;;;;;;;;;;;;;;5025087;28;5070;-63
2024/03/26 07:32:58;;;;;;;;;;;;;;;;;;5023771;28;5035;-63
2024/03/26 07:35:26;;;;;;;;;;;;;;;;;;5024519;28;2059;-63
2024/03/26 07:37:52;;;;;;;;;;;;;;;;;;5022956;28;5101;-63
2024/03/26 07:40:17;;;;;;;;;;;;;;;;;;5025928;28;5042;-63
2024/03/26 07:42:42;;;;;;;;;;;;;;;;;;5027752;28;5034;-63
2024/03/26 07:45:08;;;;;;;;;;;;;;;;;;5022506;28;4724;-62
2024/03/26 07:47:34;;;;;;;;;;;;;;;;;;5027550;28;1105;-63
2024/03/26 07:49:59;;;;;;;;;;;;;;;;;;5021989;28;4511;-63
2024/03/26 07:52:25;;;;;;;;;;;;;;;;;;5027278;28;4465;-63
2024/03/26 07:54:50;;;;;;;;;;;;;;;;;;5025582;28;4565;-63
2024/03/26 07:57:15;;;;;;;;;;;;;;;;;;5023288;28;5071;-63
2024/03/26 07:59:41;;;;;;;;;;;;;;;;;;5024704;28;5210;-63
2024/03/26 08:02:06;;;;;;;;;;;;;;;;;;5028093;28;1211;-63
2024/03/26 08:04:31;;;;;;;;;;;;;;;;;;5022253;28;4608;-63
2024/03/26 08:06:57;;;;;;;;;;;;;;;;;;5023910;28;4591;-63
2024/03/26 08:09:22;;;;;;;;;;;;;;;;;;5022254;28;4525;-63
2024/03/26 08:11:47;;;;;;;;;;;;;;;;;;5026167;28;4622;-63
2024/03/26 08:14:13;;;;;;;;;;;;;;;;;;5026406;28;3272;-63
2024/03/26 08:16:38;;;;;;;;;;;;;;;;;;5029399;28;5033;-63
2024/03/26 08:19:04;;;;;;;;;;;;;;;;;;5026830;28;5156;-63
2024/03/26 08:21:29;;;;;;;;;;;;;;;;;;5022537;28;4711;-63
2024/03/26 08:23:54;;;;;;;;;;;;;;;;;;5027742;28;4661;-63
2024/03/26 08:26:20;;;;;;;;;;;;;;;;;;5025975;28;1431;-63
2024/03/26 08:28:45;;;;;;;;;;;;;;;;;;5022723;28;5030;-63
2024/03/26 08:31:10;;;;;;;;;;;;;;;;;;5026486;28;5289;-63
2024/03/26 08:33:36;;;;;;;;;;;;;;;;;;5025733;28;4512;-63
2024/03/26 08:36:04;;;;;;;;;;;;;;;;;;5025438;28;5137;-63
2024/03/26 08:38:33;;;;;;;;;;;;;;;;;;5019981;28;3369;-64
2024/03/26 08:40:58;;;;;;;;;;;;;;;;;;5020388;28;5046;-63
2024/03/26 08:43:23;;;;;;;;;;;;;;;;;;5026951;28;5051;-63
2024/03/26 08:45:49;;;;;;;;;;;;;;;;;;5021425;28;4559;-63
2024/03/26 08:48:14;;;;;;;;;;;;;;;;;;5026167;28;5168;-63
2024/03/26 08:50:40;;;;;;;;;;;;;;;;;;5025994;28;5020;-63
2024/03/26 08:53:05;;;;;;;;;;;;;;;;;;5022671;28;3359;-63
2024/03/26 08:55:31;;;;;;;;;;;;;;;;;;5021482;28;4547;-61
2024/03/26 08:57:57;;;;;;;;;;;;;;;;;;5020746;28;5017;-66
2024/03/26 09:00:22;;;;;;;;;;;;;;;;;;5013977;28;4733;-64
2024/03/26 09:02:47;;;;;;;;;;;;;;;;;;5016868;28;4481;-66
2024/03/26 09:05:13;;;;;;;;;;;;;;;;;;5016692;28;1496;-64
2024/03/26 09:07:38;;;;;;;;;;;;;;;;;;5012966;28;4969;-65
2024/03/26 09:10:06;;;;;;;;;;;;;;;;;;5015748;28;4636;-63
2024/03/26 09:12:32;;;;;;;;;;;;;;;;;;5014831;28;4558;-62
2024/03/26 09:14:57;;;;;;;;;;;;;;;;;;5015904;28;5106;-62
2024/03/26 09:17:23;;;;;;;;;;;;;;;;;;5016493;28;1166;-62
2024/03/26 09:19:48;;;;;;;;;;;;;;;;;;5016167;28;4706;-62
2024/03/26 09:22:13;;;;;;;;;;;;;;;;;;5016104;28;4537;-62
2024/03/26 09:24:39;;;;;;;;;;;;;;;;;;5015241;28;4658;-62
2024/03/26 09:27:04;;;;;;;;;;;;;;;;;;5015165;28;4565;-62
2024/03/26 09:29:30;;;;;;;;;;;;;;;;;;5016004;28;1264;-61
2024/03/26 09:31:55;;;;;;;;;;;;;;;;;;5013970;28;5116;-62
2024/03/26 09:34:21;;;;;;;;;;;;;;;;;;5008511;28;5151;-61
2024/03/26 09:36:46;;;;;;;;;;;;;;;;;;5004861;28;4683;-61
2024/03/26 09:39:11;;;;;;;;;;;;;;;;;;5014219;28;4554;-62
2024/03/26 09:41:36;;;;;;;;;;;;;;;;;;5012086;28;4607;-61
2024/03/26 09:44:03;;;;;;;;;;;;;;;;;;5015639;28;1166;-61
2024/03/26 09:46:29;;;;;;;;;;;;;;;;;;5015795;28;4820;-59
2024/03/26 09:48:54;;;;;;;;;;;;;;;;;;5022816;28;4540;-58
2024/03/26 09:51:19;;;;;;;;;;;;;;;;;;5020848;28;4625;-61
2024/03/26 09:53:46;;;;;;;;;;;;;;;;;;5018184;28;5157;-59
2024/03/26 09:56:11;;;;;;;;;;;;;;;;;;5024921;28;1918;-62
2024/03/26 09:58:37;;;;;;;;;;;;;;;;;;5020642;28;5042;-59
2024/03/26 10:01:02;;;;;;;;;;;;;;;;;;5014100;28;5251;-59
2024/03/26 10:03:28;;;;;;;;;;;;;;;;;;5021897;28;4569;-67
2024/03/26 10:05:53;;;;;;;;;;;;;;;;;;5026178;28;5131;-69
2024/03/26 10:08:20;;;;;;;;;;;;;;;;;;5026274;28;3387;-70
2024/03/26 10:10:46;;;;;;;;;;;;;;;;;;5016603;28;4618;-72
2024/03/26 10:13:11;;;;;;;;;;;;;;;;;;5038433;28;4634;-67
2024/03/26 10:15:40;;;;;;;;;;;;;;;;;;5021716;28;5094;-67
2024/03/26 10:18:08;;;;;;;;;;;;;;;;;;5021802;28;4757;-67
2024/03/26 10:20:34;;;;;;;;;;;;;;;;;;5027664;28;1149;-68
2024/03/26 10:22:59;;;;;;;;;;;;;;;;;;5024666;28;4413;-66
2024/03/26 10:25:25;;;;;;;;;;;;;;;;;;5024206;28;5822;-68
2024/03/26 10:27:50;;;;;;;;;;;;;;;;;;5027112;28;5110;-66
2024/03/26 10:30:16;;;;;;;;;;;;;;;;;;5032958;28;4965;-66
2024/03/26 10:32:41;;;;;;;;;;;;;;;;;;5025148;28;5003;-68
2024/03/26 10:35:07;;;;;;;;;;;;;;;;;;5024116;28;2251;-68
2024/03/26 10:37:32;;;;;;;;;;;;;;;;;;5035556;28;4465;-66
2024/03/26 10:40:05;;;;;;;;;;;;;;;;;;5024848;28;4636;-68
2024/03/26 10:42:31;;;;;;;;;;;;;;;;;;5019398;28;5027;-71
2024/03/26 10:44:57;;;;;;;;;;;;;;;;;;5023186;28;4598;-72
2024/03/26 10:47:23;;;;;;;;;;;;;;;;;;5031694;28;3328;-64
2024/03/26 10:49:48;;;;;;;;;;;;;;;;;;5024476;28;5009;-65
2024/03/26 10:52:14;;;;;;;;;;;;;;;;;;5016771;28;4713;-67
2024/03/26 10:54:39;;;;;;;;;;;;;;;;;;5027106;28;4688;-66
2024/03/26 10:57:04;;;;;;;;;;;;;;;;;;5025570;28;4534;-64
2024/03/26 10:59:30;;;;;;;;;;;;;;;;;;5012266;28;2232;-65
2024/03/26 11:01:55;;;;;;;;;;;;;;;;;;5012883;28;4984;-63
2024/03/26 11:04:20;;;;;;;;;;;;;;;;;;5014861;28;5051;-58
2024/03/26 11:06:46;;;;;;;;;;;;;;;;;;4992136;28;4500;-61
2024/03/26 11:09:14;;;;;;;;;;;;;;;;;;5003730;28;4857;-59
2024/03/26 11:11:40;;;;;;;;;;;;;;;;;;5011764;28;4936;-59
2024/03/26 11:14:05;;;;;;;;;;;;;;;;;;5017680;28;3303;-58
2024/03/26 11:16:33;;;;;;;;;;;;;;;;;;4993067;28;4718;-60
2024/03/26 11:19:01;;;;;;;;;;;;;;;;;;5018406;28;4658;-60
2024/03/26 11:21:32;;;;;;;;;;;;;;;;;;4994076;28;6024;-60
2024/03/26 11:23:58;;;;;;;;;;;;;;;;;;4995625;28;4510;-61
2024/03/26 11:26:24;;;;;;;;;;;;;;;;;;5017431;28;3357;-60
2024/03/26 11:28:49;;;;;;;;;;;;;;;;;;5017793;28;5565;-58
2024/03/26 11:31:14;;;;;;;;;;;;;;;;;;5016934;28;5092;-59
2024/03/26 11:33:40;;;;;;;;;;;;;;;;;;5021816;28;4476;-59
2024/03/26 11:36:09;;;;;;;;;;;;;;;;;;5027942;28;4681;-60
2024/03/26 11:38:34;;;;;;;;;;;;;;;;;;5021573;28;1522;-60
2024/03/26 11:41:00;;;;;;;;;;;;;;;;;;5020923;28;5028;-60
2024/03/26 11:43:25;;;;;;;;;;;;;;;;;;5027329;28;5024;-60
2024/03/26 11:45:50;;;;;;;;;;;;;;;;;;5023282;28;4482;-60
2024/03/26 11:48:16;;;;;;;;;;;;;;;;;;5027525;28;5188;-60
2024/03/26 11:50:41;;;;;;;;;;;;;;;;;;5027485;28;5161;-60
2024/03/26 11:53:07;;;;;;;;;;;;;;;;;;5025599;28;2035;-61
2024/03/26 11:55:32;;;;;;;;;;;;;;;;;;5027758;28;4571;-60
2024/03/26 11:57:58;;;;;;;;;;;;;;;;;;5019183;28;4530;-60
2024/03/26 12:00:23;;;;;;;;;;;;;;;;;;5019804;28;4615;-60
2024/03/26 12:02:49;;;;;;;;;;;;;;;;;;5024763;28;5063;-60
2024/03/26 12:05:14;;;;;;;;;;;;;;;;;;5027938;28;1707;-60
2024/03/26 12:07:40;;;;;;;;;;;;;;;;;;5026201;28;5050;-60
2024/03/26 12:10:06;;;;;;;;;;;;;;;;;;5024092;28;4550;-60
2024/03/26 12:12:36;;;;;;;;;;;;;;;;;;5027117;28;5051;-60
2024/03/26 12:15:03;;;;;;;;;;;;;;;;;;5027845;28;4997;-60
2024/03/26 12:17:28;;;;;;;;;;;;;;;;;;5027500;28;3332;-60
2024/03/26 12:19:54;;;;;;;;;;;;;;;;;;5027221;28;4546;-60
2024/03/26 12:22:20;;;;;;;;;;;;;;;;;;5039671;28;5119;-61
2024/03/26 12:24:48;;;;;;;;;;;;;;;;;;5025335;28;5170;-59
2024/03/26 12:27:13;;;;;;;;;;;;;;;;;;5026747;28;4618;-62
2024/03/26 12:29:39;;;;;;;;;;;;;;;;;;5019381;28;5093;-62
2024/03/26 12:32:05;;;;;;;;;;;;;;;;;;5025142;28;3220;-63
2024/03/26 12:34:30;;;;;;;;;;;;;;;;;;5017163;28;4663;-60
2024/03/26 12:36:56;;;;;;;;;;;;;;;;;;5028094;28;5024;-63
2024/03/26 12:39:21;;;;;;;;;;;;;;;;;;5024156;28;4500;-63
2024/03/26 12:41:46;;;;;;;;;;;;;;;;;;5020186;28;5173;-63
2024/03/26 12:44:12;;;;;;;;;;;;;;;;;;5020994;28;1104;-63
2024/03/26 12:46:38;;;;;;;;;;;;;;;;;;5023199;28;4455;-62
2024/03/26 12:49:06;;;;;;;;;;;;;;;;;;5021096;28;5107;-62
2024/03/26 12:51:32;;;;;;;;;;;;;;;;;;5029521;28;4716;-63
2024/03/26 12:54:01;;;;;;;;;;;;;;;;;;5029359;28;4454;-62
2024/03/26 12:56:26;;;;;;;;;;;;;;;;;;5022863;28;3088;-62
2024/03/26 12:58:51;;;;;;;;;;;;;;;;;;5028434;28;4517;-62
2024/03/26 13:01:17;;;;;;;;;;;;;;;;;;5020630;28;4740;-63
2024/03/26 13:03:43;;;;;;;;;;;;;;;;;;5026287;28;5048;-62
2024/03/26 13:06:08;;;;;;;;;;;;;;;;;;5022649;28;5145;-62
2024/03/26 13:08:33;;;;;;;;;;;;;;;;;;5027593;28;1181;-62
2024/03/26 13:11:03;;;;;;;;;;;;;;;;;;5028670;28;4528;-62
2024/03/26 13:13:29;;;;;;;;;;;;;;;;;;5027009;28;4433;-60
2024/03/26 13:15:55;;;;;;;;;;;;;;;;;;5023479;28;5029;-61
2024/03/26 13:18:20;;;;;;;;;;;;;;;;;;5028667;28;4571;-62
2024/03/26 13:20:46;;;;;;;;;;;;;;;;;;5021549;28;4537;-61
2024/03/26 13:23:11;;;;;;;;;;;;;;;;;;5026902;28;3284;-61
2024/03/26 13:25:36;;;;;;;;;;;;;;;;;;5022784;28;4979;-61
2024/03/26 13:28:02;;;;;;;;;;;;;;;;;;5019880;28;4528;-62
2024/03/26 13:30:28;;;;;;;;;;;;;;;;;;5026211;28;4972;-63
2024/03/26 13:32:54;;;;;;;;;;;;;;;;;;5027365;28;4893;-62
2024/03/26 13:35:19;;;;;;;;;;;;;;;;;;5018111;28;3359;-62
2024/03/26 13:37:45;;;;;;;;;;;;;;;;;;5018743;28;5065;-63
2024/03/26 13:40:11;;;;;;;;;;;;;;;;;;5027063;28;5137;-62
2024/03/26 13:42:36;;;;;;;;;;;;;;;;;;5028048;28;4620;-62
2024/03/26 13:45:01;;;;;;;;;;;;;;;;;;5021703;28;5108;-62
2024/03/26 13:47:27;;;;;;;;;;;;;;;;;;5028568;28;1081;-62
2024/03/26 13:49:52;;;;;;;;;;;;;;;;;;5022421;28;4464;-62
2024/03/26 13:52:18;;;;;;;;;;;;;;;;;;5028245;28;5095;-61
2024/03/26 13:54:43;;;;;;;;;;;;;;;;;;5015664;28;5614;-62
2024/03/26 13:57:09;;;;;;;;;;;;;;;;;;5027335;28;4948;-62
2024/03/26 13:59:34;;;;;;;;;;;;;;;;;;5017360;28;3153;-61
2024/03/26 14:01:59;;;;;;;;;;;;;;;;;;5027752;28;4446;-63
2024/03/26 14:04:25;;;;;;;;;;;;;;;;;;5026446;28;5030;-62
2024/03/26 14:06:50;;;;;;;;;;;;;;;;;;5025954;28;5027;-62
2024/03/26 14:09:15;;;;;;;;;;;;;;;;;;5021307;28;4950;-62
2024/03/26 14:11:41;;;;;;;;;;;;;;;;;;5027796;28;5191;-62
2024/03/26 14:14:07;;;;;;;;;;;;;;;;;;5027166;28;2259;-63
2024/03/26 14:16:32;;;;;;;;;;;;;;;;;;5025835;28;4642;-60
2024/03/26 14:18:57;;;;;;;;;;;;;;;;;;5027742;28;4990;-62
2024/03/26 14:21:23;;;;;;;;;;;;;;;;;;5024781;28;4642;-62
2024/03/26 14:23:48;;;;;;;;;;;;;;;;;;5017434;28;4728;-61
2024/03/26 14:26:14;;;;;;;;;;;;;;;;;;5020029;28;3166;-60
2024/03/26 14:28:39;;;;;;;;;;;;;;;;;;5021986;28;4999;-62
2024/03/26 14:31:05;;;;;;;;;;;;;;;;;;5023024;28;5090;-62
2024/03/26 14:33:31;;;;;;;;;;;;;;;;;;5021591;28;5188;-63
2024/03/26 14:35:56;;;;;;;;;;;;;;;;;;5019541;28;5025;-62
2024/03/26 14:38:21;;;;;;;;;;;;;;;;;;5028001;28;1144;-62
2024/03/26 14:40:47;;;;;;;;;;;;;;;;;;5025556;28;5168;-63
2024/03/26 14:43:12;;;;;;;;;;;;;;;;;;5024894;28;4513;-62
2024/03/26 14:45:38;;;;;;;;;;;;;;;;;;5017806;28;4604;-63
2024/03/26 14:48:03;;;;;;;;;;;;;;;;;;5017222;28;5148;-63
2024/03/26 14:50:29;;;;;;;;;;;;;;;;;;5023042;28;1214;-62
2024/03/26 14:52:54;;;;;;;;;;;;;;;;;;5026277;28;4473;-62
2024/03/26 14:55:20;;;;;;;;;;;;;;;;;;5019726;28;4891;-63
2024/03/26 14:57:45;;;;;;;;;;;;;;;;;;5026391;28;4506;-62
2024/03/26 15:00:11;;;;;;;;;;;;;;;;;;5022689;28;4845;-63
2024/03/26 15:02:36;;;;;;;;;;;;;;;;;;5026724;28;4997;-62
2024/03/26 15:05:04;;;;;;;;;;;;;;;;;;5024728;28;1946;-62
2024/03/26 15:07:29;;;;;;;;;;;;;;;;;;5024104;28;4470;-61
2024/03/26 15:09:55;;;;;;;;;;;;;;;;;;5019371;28;5532;-63
2024/03/26 15:12:20;;;;;;;;;;;;;;;;;;5027081;28;4506;-62
2024/03/26 15:14:45;;;;;;;;;;;;;;;;;;5023414;28;5283;-60
2024/03/26 15:17:11;;;;;;;;;;;;;;;;;;5020118;28;3154;-67
2024/03/26 15:19:36;;;;;;;;;;;;;;;;;;5018307;28;5244;-62
2024/03/26 15:22:03;;;;;;;;;;;;;;;;;;5024551;28;5128;-62
2024/03/26 15:24:29;;;;;;;;;;;;;;;;;;5024930;28;5053;-62
2024/03/26 15:32:19;;;;;;;;;;;;;;;;;;5024194;28;4643;-60
2024/03/26 15:34:44;;;;;;;;;;;;;;;;;;5024552;28;4930;-61
2024/03/26 15:37:09;;;;;;;;;;;;;;;;;;5018742;28;5053;-61
2024/03/26 15:39:35;;;;;;;;;;;;;;;;;;5017934;28;4546;-61
2024/03/26 15:42:00;;;;;;;;;;;;;;;;;;5014351;28;4693;-61
2024/03/26 15:44:25;;;;;;;;;;;;;;;;;;5017832;28;3341;-61
2024/03/26 15:46:51;;;;;;;;;;;;;;;;;;5020840;28;4921;-60
2024/03/26 15:49:16;;;;;;;;;;;;;;;;;;5029733;28;4962;-61
2024/03/26 15:51:42;;;;;;;;;;;;;;;;;;5017580;28;5056;-61
2024/03/26 15:54:07;;;;;;;;;;;;;;;;;;5023741;28;5192;-62
2024/03/26 15:56:32;;;;;;;;;;;;;;;;;;5017806;28;3185;-61
2024/03/26 15:58:58;;;;;;;;;;;;;;;;;;5029428;28;4563;-61
2024/03/26 16:01:23;;;;;;;;;;;;;;;;;;5025462;28;4897;-61
2024/03/26 16:03:50;;;;;;;;;;;;;;;;;;5025640;28;4517;-61
2024/03/26 16:06:15;;;;;;;;;;;;;;;;;;5029389;28;4927;-61
2024/03/26 16:08:41;;;;;;;;;;;;;;;;;;5024414;28;4525;-61
2024/03/26 16:11:06;;;;;;;;;;;;;;;;;;5025338;28;3384;-61
2024/03/26 16:13:31;;;;;;;;;;;;;;;;;;5019906;28;4420;-61
2024/03/26 16:15:57;;;;;;;;;;;;;;;;;;5027238;28;5050;-62
2024/03/26 16:18:22;;;;;;;;;;;;;;;;;;5019878;28;4651;-61
2024/03/26 16:20:47;;;;;;;;;;;;;;;;;;5020587;28;5040;-65
2024/03/26 16:23:13;;;;;;;;;;;;;;;;;;5024744;28;3432;-60
2024/03/26 16:25:41;;;;;;;;;;;;;;;;;;5037851;28;4614;-59
2024/03/26 16:28:06;;;;;;;;;;;;;;;;;;5029013;28;5043;-59
2024/03/26 16:30:32;;;;;;;;;;;;;;;;;;5023306;28;5035;-60
2024/03/26 16:32:57;;;;;;;;;;;;;;;;;;5029611;28;5181;-59
2024/03/26 16:35:23;;;;;;;;;;;;;;;;;;5019908;28;3363;-59
2024/03/26 16:37:48;;;;;;;;;;;;;;;;;;5025442;28;4464;-58
2024/03/26 16:40:13;;;;;;;;;;;;;;;;;;5023964;28;4738;-59
2024/03/26 16:42:39;;;;;;;;;;;;;;;;;;5028914;28;5072;-59
2024/03/26 16:45:05;;;;;;;;;;;;;;;;;;5027153;28;4928;-60
2024/03/26 16:47:31;;;;;;;;;;;;;;;;;;5020054;28;3366;-61
2024/03/26 16:49:56;;;;;;;;;;;;;;;;;;5022883;28;5012;-59
2024/03/26 16:52:22;;;;;;;;;;;;;;;;;;5020905;28;4623;-61
2024/03/26 16:54:47;;;;;;;;;;;;;;;;;;5028669;28;5182;-62
2024/03/26 16:57:12;;;;;;;;;;;;;;;;;;5031935;28;5200;-63